sensor_id;sensor_type;location;lat;lon;timestamp;P1;durP1;ratioP1;P2;durP2;ratioP2
19187;SDS011;9726;52.198;8.792;2024-02-16T00:00:10;15.63;;;2.33;;
19187;SDS011;9726;52.198;8.792;2024-02-16T00:02:39;7.20;;;2.07;;
19187;SDS011;9726;52.198;8.792;2024-02-16T00:05:10;8.67;;;2.63;;
19187;SDS011;9726;52.198;8.792;2024-02-16T00:07:38;5.40;;;2.30;;
19187;SDS011;9726;52.198;8.792;2024-02-16T00:10:06;6.03;;;2.30;;
19187;SDS011;9726;52.198;8.792;2024-02-16T00:12:35;4.73;;;1.80;;
19187;SDS011;9726;52.198;8.792;2024-02-16T00:15:05;2.63;;;1.80;;
19187;SDS011;9726;52.198;8.792;2024-02-16T00:17:32;7.67;;;2.03;;
19187;SDS011;9726;52.198;8.792;2024-02-16T00:20:00;10.73;;;2.37;;
19187;SDS011;9726;52.198;8.792;2024-02-16T00:22:27;11.77;;;2.53;;
19187;SDS011;9726;52.198;8.792;2024-02-16T00:24:54;6.23;;;1.93;;
19187;SDS011;9726;52.198;8.792;2024-02-16T00:27:21;8.30;;;3.00;;
19187;SDS011;9726;52.198;8.792;2024-02-16T00:29:49;4.83;;;2.20;;
19187;SDS011;9726;52.198;8.792;2024-02-16T00:32:16;3.03;;;1.80;;
19187;SDS011;9726;52.198;8.792;2024-02-16T00:34:43;8.87;;;3.37;;
19187;SDS011;9726;52.198;8.792;2024-02-16T00:37:10;11.83;;;3.47;;
19187;SDS011;9726;52.198;8.792;2024-02-16T00:39:40;5.77;;;2.43;;
19187;SDS011;9726;52.198;8.792;2024-02-16T00:42:08;12.27;;;2.23;;
19187;SDS011;9726;52.198;8.792;2024-02-16T00:44:35;7.43;;;1.80;;
19187;SDS011;9726;52.198;8.792;2024-02-16T00:47:03;4.83;;;1.87;;
19187;SDS011;9726;52.198;8.792;2024-02-16T00:49:32;4.60;;;2.20;;
19187;SDS011;9726;52.198;8.792;2024-02-16T00:52:00;6.30;;;2.40;;
19187;SDS011;9726;52.198;8.792;2024-02-16T00:54:28;4.63;;;2.00;;
19187;SDS011;9726;52.198;8.792;2024-02-16T00:56:55;11.70;;;2.53;;
19187;SDS011;9726;52.198;8.792;2024-02-16T00:59:31;7.27;;;2.00;;
19187;SDS011;9726;52.198;8.792;2024-02-16T01:01:58;8.37;;;2.30;;
19187;SDS011;9726;52.198;8.792;2024-02-16T01:04:25;9.93;;;2.33;;
19187;SDS011;9726;52.198;8.792;2024-02-16T01:06:52;11.33;;;2.50;;
19187;SDS011;9726;52.198;8.792;2024-02-16T01:09:19;4.67;;;2.20;;
19187;SDS011;9726;52.198;8.792;2024-02-16T01:11:46;7.10;;;2.10;;
19187;SDS011;9726;52.198;8.792;2024-02-16T01:14:14;7.73;;;2.03;;
19187;SDS011;9726;52.198;8.792;2024-02-16T01:16:41;10.47;;;2.23;;
19187;SDS011;9726;52.198;8.792;2024-02-16T01:19:09;8.77;;;2.70;;
19187;SDS011;9726;52.198;8.792;2024-02-16T01:21:36;3.57;;;2.23;;
19187;SDS011;9726;52.198;8.792;2024-02-16T01:24:04;10.00;;;2.10;;
19187;SDS011;9726;52.198;8.792;2024-02-16T01:26:32;7.43;;;2.00;;
19187;SDS011;9726;52.198;8.792;2024-02-16T01:28:59;3.17;;;1.73;;
19187;SDS011;9726;52.198;8.792;2024-02-16T01:31:28;5.90;;;1.90;;
19187;SDS011;9726;52.198;8.792;2024-02-16T01:33:55;4.00;;;2.20;;
19187;SDS011;9726;52.198;8.792;2024-02-16T01:36:23;3.97;;;2.00;;
19187;SDS011;9726;52.198;8.792;2024-02-16T01:38:50;7.77;;;2.20;;
19187;SDS011;9726;52.198;8.792;2024-02-16T01:41:17;7.73;;;2.40;;
19187;SDS011;9726;52.198;8.792;2024-02-16T01:43:44;3.33;;;2.10;;
19187;SDS011;9726;52.198;8.792;2024-02-16T01:46:11;5.93;;;1.90;;
19187;SDS011;9726;52.198;8.792;2024-02-16T01:48:38;5.90;;;2.13;;
19187;SDS011;9726;52.198;8.792;2024-02-16T01:51:07;6.77;;;2.00;;
19187;SDS011;9726;52.198;8.792;2024-02-16T01:53:35;7.07;;;1.67;;
19187;SDS011;9726;52.198;8.792;2024-02-16T01:56:03;5.20;;;2.00;;
19187;SDS011;9726;52.198;8.792;2024-02-16T01:58:31;9.33;;;2.20;;
19187;SDS011;9726;52.198;8.792;2024-02-16T02:00:59;7.87;;;1.97;;
19187;SDS011;9726;52.198;8.792;2024-02-16T02:03:26;10.33;;;1.97;;
19187;SDS011;9726;52.198;8.792;2024-02-16T02:05:53;9.77;;;2.10;;
19187;SDS011;9726;52.198;8.792;2024-02-16T02:08:23;9.77;;;2.70;;
19187;SDS011;9726;52.198;8.792;2024-02-16T02:10:52;4.53;;;1.80;;
19187;SDS011;9726;52.198;8.792;2024-02-16T02:13:19;9.97;;;2.53;;
19187;SDS011;9726;52.198;8.792;2024-02-16T02:15:49;11.87;;;2.00;;
19187;SDS011;9726;52.198;8.792;2024-02-16T02:18:16;6.40;;;1.93;;
19187;SDS011;9726;52.198;8.792;2024-02-16T02:20:44;7.57;;;2.13;;
19187;SDS011;9726;52.198;8.792;2024-02-16T02:23:11;4.93;;;2.10;;
19187;SDS011;9726;52.198;8.792;2024-02-16T02:25:38;7.10;;;1.90;;
19187;SDS011;9726;52.198;8.792;2024-02-16T02:28:06;3.50;;;1.90;;
19187;SDS011;9726;52.198;8.792;2024-02-16T02:30:34;8.90;;;2.13;;
19187;SDS011;9726;52.198;8.792;2024-02-16T02:33:02;6.17;;;1.73;;
19187;SDS011;9726;52.198;8.792;2024-02-16T02:35:29;5.57;;;2.33;;
19187;SDS011;9726;52.198;8.792;2024-02-16T02:37:56;8.80;;;2.10;;
19187;SDS011;9726;52.198;8.792;2024-02-16T02:40:23;7.43;;;1.77;;
19187;SDS011;9726;52.198;8.792;2024-02-16T02:42:52;9.83;;;2.80;;
19187;SDS011;9726;52.198;8.792;2024-02-16T02:45:20;6.53;;;1.80;;
19187;SDS011;9726;52.198;8.792;2024-02-16T02:47:47;6.30;;;2.20;;
19187;SDS011;9726;52.198;8.792;2024-02-16T02:50:14;4.40;;;2.30;;
19187;SDS011;9726;52.198;8.792;2024-02-16T02:52:42;4.97;;;2.03;;
19187;SDS011;9726;52.198;8.792;2024-02-16T02:55:11;4.10;;;2.00;;
19187;SDS011;9726;52.198;8.792;2024-02-16T02:57:38;5.77;;;1.80;;
19187;SDS011;9726;52.198;8.792;2024-02-16T03:00:06;11.27;;;2.43;;
19187;SDS011;9726;52.198;8.792;2024-02-16T03:02:39;5.03;;;2.43;;
19187;SDS011;9726;52.198;8.792;2024-02-16T03:05:06;5.20;;;2.10;;
19187;SDS011;9726;52.198;8.792;2024-02-16T03:07:34;4.00;;;1.97;;
19187;SDS011;9726;52.198;8.792;2024-02-16T03:10:02;8.37;;;2.10;;
19187;SDS011;9726;52.198;8.792;2024-02-16T03:12:31;5.67;;;2.20;;
19187;SDS011;9726;52.198;8.792;2024-02-16T03:14:58;7.00;;;1.90;;
19187;SDS011;9726;52.198;8.792;2024-02-16T03:17:26;5.93;;;2.20;;
19187;SDS011;9726;52.198;8.792;2024-02-16T03:19:53;7.63;;;2.03;;
19187;SDS011;9726;52.198;8.792;2024-02-16T03:22:20;10.90;;;1.97;;
19187;SDS011;9726;52.198;8.792;2024-02-16T03:24:47;6.00;;;1.67;;
19187;SDS011;9726;52.198;8.792;2024-02-16T03:27:15;3.60;;;2.07;;
19187;SDS011;9726;52.198;8.792;2024-02-16T03:29:42;4.40;;;2.20;;
19187;SDS011;9726;52.198;8.792;2024-02-16T03:32:10;11.17;;;2.20;;
19187;SDS011;9726;52.198;8.792;2024-02-16T03:34:37;7.57;;;2.53;;
19187;SDS011;9726;52.198;8.792;2024-02-16T03:37:05;4.33;;;2.03;;
19187;SDS011;9726;52.198;8.792;2024-02-16T03:39:32;2.97;;;1.90;;
19187;SDS011;9726;52.198;8.792;2024-02-16T03:41:59;6.40;;;1.80;;
19187;SDS011;9726;52.198;8.792;2024-02-16T03:44:26;6.70;;;1.90;;
19187;SDS011;9726;52.198;8.792;2024-02-16T03:46:53;4.13;;;1.93;;
19187;SDS011;9726;52.198;8.792;2024-02-16T03:49:22;8.47;;;2.10;;
19187;SDS011;9726;52.198;8.792;2024-02-16T03:51:52;5.50;;;1.90;;
19187;SDS011;9726;52.198;8.792;2024-02-16T03:54:19;4.93;;;1.80;;
19187;SDS011;9726;52.198;8.792;2024-02-16T03:56:46;7.83;;;2.13;;
19187;SDS011;9726;52.198;8.792;2024-02-16T03:59:15;5.83;;;2.00;;
19187;SDS011;9726;52.198;8.792;2024-02-16T04:01:42;4.93;;;1.67;;
19187;SDS011;9726;52.198;8.792;2024-02-16T04:04:09;10.63;;;2.47;;
19187;SDS011;9726;52.198;8.792;2024-02-16T04:06:36;8.00;;;2.47;;
19187;SDS011;9726;52.198;8.792;2024-02-16T04:09:04;6.23;;;2.03;;
19187;SDS011;9726;52.198;8.792;2024-02-16T04:11:34;2.03;;;1.70;;
19187;SDS011;9726;52.198;8.792;2024-02-16T04:14:02;3.07;;;1.50;;
19187;SDS011;9726;52.198;8.792;2024-02-16T04:16:29;2.80;;;1.83;;
19187;SDS011;9726;52.198;8.792;2024-02-16T04:18:56;11.07;;;2.30;;
19187;SDS011;9726;52.198;8.792;2024-02-16T04:21:23;4.97;;;2.30;;
19187;SDS011;9726;52.198;8.792;2024-02-16T04:23:50;8.80;;;2.30;;
19187;SDS011;9726;52.198;8.792;2024-02-16T04:26:17;12.10;;;2.20;;
19187;SDS011;9726;52.198;8.792;2024-02-16T04:28:44;5.13;;;2.00;;
19187;SDS011;9726;52.198;8.792;2024-02-16T04:31:12;6.73;;;1.70;;
19187;SDS011;9726;52.198;8.792;2024-02-16T04:33:39;9.27;;;2.53;;
19187;SDS011;9726;52.198;8.792;2024-02-16T04:36:06;4.10;;;1.93;;
19187;SDS011;9726;52.198;8.792;2024-02-16T04:38:34;6.17;;;1.90;;
19187;SDS011;9726;52.198;8.792;2024-02-16T04:41:01;6.93;;;2.20;;
19187;SDS011;9726;52.198;8.792;2024-02-16T04:43:31;5.70;;;2.43;;
19187;SDS011;9726;52.198;8.792;2024-02-16T04:45:58;5.60;;;2.40;;
19187;SDS011;9726;52.198;8.792;2024-02-16T04:48:26;7.73;;;2.17;;
19187;SDS011;9726;52.198;8.792;2024-02-16T04:50:53;10.90;;;2.60;;
19187;SDS011;9726;52.198;8.792;2024-02-16T04:53:20;6.33;;;2.13;;
19187;SDS011;9726;52.198;8.792;2024-02-16T04:55:47;6.73;;;2.77;;
19187;SDS011;9726;52.198;8.792;2024-02-16T04:58:14;9.17;;;2.60;;
19187;SDS011;9726;52.198;8.792;2024-02-16T05:00:42;4.30;;;1.83;;
19187;SDS011;9726;52.198;8.792;2024-02-16T05:03:12;6.10;;;2.33;;
19187;SDS011;9726;52.198;8.792;2024-02-16T05:05:39;6.93;;;2.47;;
19187;SDS011;9726;52.198;8.792;2024-02-16T05:08:06;6.97;;;2.07;;
19187;SDS011;9726;52.198;8.792;2024-02-16T05:10:33;9.03;;;2.43;;
19187;SDS011;9726;52.198;8.792;2024-02-16T05:13:01;5.27;;;2.47;;
19187;SDS011;9726;52.198;8.792;2024-02-16T05:15:28;8.53;;;2.40;;
19187;SDS011;9726;52.198;8.792;2024-02-16T05:17:55;5.50;;;1.83;;
19187;SDS011;9726;52.198;8.792;2024-02-16T05:20:22;3.80;;;1.60;;
19187;SDS011;9726;52.198;8.792;2024-02-16T05:22:49;6.00;;;2.23;;
19187;SDS011;9726;52.198;8.792;2024-02-16T05:25:17;6.90;;;1.70;;
19187;SDS011;9726;52.198;8.792;2024-02-16T05:27:45;8.73;;;2.70;;
19187;SDS011;9726;52.198;8.792;2024-02-16T05:30:16;5.80;;;1.87;;
19187;SDS011;9726;52.198;8.792;2024-02-16T05:32:43;3.77;;;1.90;;
19187;SDS011;9726;52.198;8.792;2024-02-16T05:35:20;4.57;;;1.83;;
19187;SDS011;9726;52.198;8.792;2024-02-16T05:37:48;3.80;;;1.87;;
19187;SDS011;9726;52.198;8.792;2024-02-16T05:40:18;7.60;;;2.17;;
19187;SDS011;9726;52.198;8.792;2024-02-16T05:42:49;10.45;;;2.33;;
19187;SDS011;9726;52.198;8.792;2024-02-16T05:45:24;5.13;;;1.63;;
19187;SDS011;9726;52.198;8.792;2024-02-16T05:47:54;7.70;;;2.20;;
19187;SDS011;9726;52.198;8.792;2024-02-16T05:50:21;5.40;;;1.70;;
19187;SDS011;9726;52.198;8.792;2024-02-16T05:52:50;5.23;;;2.23;;
19187;SDS011;9726;52.198;8.792;2024-02-16T05:55:18;5.37;;;1.70;;
19187;SDS011;9726;52.198;8.792;2024-02-16T05:57:45;4.73;;;1.93;;
19187;SDS011;9726;52.198;8.792;2024-02-16T06:00:13;5.93;;;2.10;;
19187;SDS011;9726;52.198;8.792;2024-02-16T06:02:42;9.40;;;2.20;;
19187;SDS011;9726;52.198;8.792;2024-02-16T06:05:09;5.07;;;1.97;;
19187;SDS011;9726;52.198;8.792;2024-02-16T06:07:37;5.60;;;2.70;;
19187;SDS011;9726;52.198;8.792;2024-02-16T06:10:05;6.63;;;1.90;;
19187;SDS011;9726;52.198;8.792;2024-02-16T06:12:38;7.13;;;2.23;;
19187;SDS011;9726;52.198;8.792;2024-02-16T06:15:05;7.27;;;1.57;;
19187;SDS011;9726;52.198;8.792;2024-02-16T06:17:33;4.73;;;2.53;;
19187;SDS011;9726;52.198;8.792;2024-02-16T06:20:00;8.17;;;2.50;;
19187;SDS011;9726;52.198;8.792;2024-02-16T06:22:28;3.97;;;1.67;;
19187;SDS011;9726;52.198;8.792;2024-02-16T06:24:58;3.87;;;1.60;;
19187;SDS011;9726;52.198;8.792;2024-02-16T06:27:25;3.30;;;2.00;;
19187;SDS011;9726;52.198;8.792;2024-02-16T06:29:52;9.53;;;2.13;;
19187;SDS011;9726;52.198;8.792;2024-02-16T06:32:19;7.27;;;1.93;;
19187;SDS011;9726;52.198;8.792;2024-02-16T06:34:46;7.17;;;2.13;;
19187;SDS011;9726;52.198;8.792;2024-02-16T06:37:13;4.67;;;2.20;;
19187;SDS011;9726;52.198;8.792;2024-02-16T06:39:41;5.23;;;2.30;;
19187;SDS011;9726;52.198;8.792;2024-02-16T06:42:14;4.50;;;2.00;;
19187;SDS011;9726;52.198;8.792;2024-02-16T06:44:41;11.43;;;2.20;;
19187;SDS011;9726;52.198;8.792;2024-02-16T06:47:08;3.90;;;1.60;;
19187;SDS011;9726;52.198;8.792;2024-02-16T06:49:35;3.93;;;1.50;;
19187;SDS011;9726;52.198;8.792;2024-02-16T06:52:03;6.57;;;1.70;;
19187;SDS011;9726;52.198;8.792;2024-02-16T06:54:32;16.17;;;6.33;;
19187;SDS011;9726;52.198;8.792;2024-02-16T06:56:59;2.90;;;2.20;;
19187;SDS011;9726;52.198;8.792;2024-02-16T06:59:26;6.47;;;1.90;;
19187;SDS011;9726;52.198;8.792;2024-02-16T07:01:53;4.43;;;2.43;;
19187;SDS011;9726;52.198;8.792;2024-02-16T07:04:20;6.07;;;2.17;;
19187;SDS011;9726;52.198;8.792;2024-02-16T07:06:47;6.97;;;2.20;;
19187;SDS011;9726;52.198;8.792;2024-02-16T07:09:15;10.33;;;1.70;;
19187;SDS011;9726;52.198;8.792;2024-02-16T07:11:42;3.00;;;1.90;;
19187;SDS011;9726;52.198;8.792;2024-02-16T07:14:16;14.63;;;5.10;;
19187;SDS011;9726;52.198;8.792;2024-02-16T07:16:43;14.13;;;5.30;;
19187;SDS011;9726;52.198;8.792;2024-02-16T07:19:11;5.10;;;2.37;;
19187;SDS011;9726;52.198;8.792;2024-02-16T07:21:39;10.87;;;5.07;;
19187;SDS011;9726;52.198;8.792;2024-02-16T07:24:06;9.37;;;4.70;;
19187;SDS011;9726;52.198;8.792;2024-02-16T07:26:35;3.53;;;2.40;;
19187;SDS011;9726;52.198;8.792;2024-02-16T07:29:03;7.77;;;2.10;;
19187;SDS011;9726;52.198;8.792;2024-02-16T07:31:33;4.67;;;2.43;;
19187;SDS011;9726;52.198;8.792;2024-02-16T07:34:02;5.17;;;2.67;;
19187;SDS011;9726;52.198;8.792;2024-02-16T07:36:30;5.47;;;2.10;;
19187;SDS011;9726;52.198;8.792;2024-02-16T07:38:58;10.23;;;2.33;;
19187;SDS011;9726;52.198;8.792;2024-02-16T07:41:26;16.73;;;2.90;;
19187;SDS011;9726;52.198;8.792;2024-02-16T07:43:54;7.43;;;2.57;;
19187;SDS011;9726;52.198;8.792;2024-02-16T07:46:21;7.77;;;2.37;;
19187;SDS011;9726;52.198;8.792;2024-02-16T07:48:49;3.30;;;2.00;;
19187;SDS011;9726;52.198;8.792;2024-02-16T07:51:17;2.90;;;1.83;;
19187;SDS011;9726;52.198;8.792;2024-02-16T07:53:44;7.17;;;2.03;;
19187;SDS011;9726;52.198;8.792;2024-02-16T07:56:12;8.47;;;2.00;;
19187;SDS011;9726;52.198;8.792;2024-02-16T07:58:43;4.53;;;2.17;;
19187;SDS011;9726;52.198;8.792;2024-02-16T08:01:11;6.87;;;2.30;;
19187;SDS011;9726;52.198;8.792;2024-02-16T08:03:42;6.20;;;1.80;;
19187;SDS011;9726;52.198;8.792;2024-02-16T08:06:09;6.63;;;2.50;;
19187;SDS011;9726;52.198;8.792;2024-02-16T08:08:39;6.30;;;1.90;;
19187;SDS011;9726;52.198;8.792;2024-02-16T08:11:06;3.93;;;1.73;;
19187;SDS011;9726;52.198;8.792;2024-02-16T08:13:33;3.10;;;1.63;;
19187;SDS011;9726;52.198;8.792;2024-02-16T08:16:01;3.10;;;1.80;;
19187;SDS011;9726;52.198;8.792;2024-02-16T08:18:33;2.47;;;1.53;;
19187;SDS011;9726;52.198;8.792;2024-02-16T08:21:01;3.77;;;1.87;;
19187;SDS011;9726;52.198;8.792;2024-02-16T08:23:28;8.60;;;2.30;;
19187;SDS011;9726;52.198;8.792;2024-02-16T08:25:57;5.77;;;1.60;;
19187;SDS011;9726;52.198;8.792;2024-02-16T08:28:24;3.10;;;1.80;;
19187;SDS011;9726;52.198;8.792;2024-02-16T08:30:51;3.50;;;1.97;;
19187;SDS011;9726;52.198;8.792;2024-02-16T08:33:18;7.03;;;2.00;;
19187;SDS011;9726;52.198;8.792;2024-02-16T08:35:46;5.83;;;1.70;;
19187;SDS011;9726;52.198;8.792;2024-02-16T08:38:13;5.77;;;2.20;;
19187;SDS011;9726;52.198;8.792;2024-02-16T08:40:40;6.07;;;1.90;;
19187;SDS011;9726;52.198;8.792;2024-02-16T08:43:07;7.73;;;1.90;;
19187;SDS011;9726;52.198;8.792;2024-02-16T08:45:34;4.53;;;1.43;;
19187;SDS011;9726;52.198;8.792;2024-02-16T08:48:02;4.67;;;2.00;;
19187;SDS011;9726;52.198;8.792;2024-02-16T08:50:45;14.80;;;1.77;;
19187;SDS011;9726;52.198;8.792;2024-02-16T08:53:15;5.23;;;1.67;;
19187;SDS011;9726;52.198;8.792;2024-02-16T08:55:43;9.53;;;2.23;;
19187;SDS011;9726;52.198;8.792;2024-02-16T08:58:10;3.23;;;1.57;;
19187;SDS011;9726;52.198;8.792;2024-02-16T09:00:37;3.17;;;2.07;;
19187;SDS011;9726;52.198;8.792;2024-02-16T09:03:05;3.63;;;1.73;;
19187;SDS011;9726;52.198;8.792;2024-02-16T09:05:33;3.40;;;1.70;;
19187;SDS011;9726;52.198;8.792;2024-02-16T09:08:00;4.90;;;1.90;;
19187;SDS011;9726;52.198;8.792;2024-02-16T09:10:28;6.67;;;1.90;;
19187;SDS011;9726;52.198;8.792;2024-02-16T09:12:55;4.47;;;1.77;;
19187;SDS011;9726;52.198;8.792;2024-02-16T09:15:22;4.53;;;1.77;;
19187;SDS011;9726;52.198;8.792;2024-02-16T09:17:49;3.17;;;1.80;;
19187;SDS011;9726;52.198;8.792;2024-02-16T09:20:17;3.37;;;1.70;;
19187;SDS011;9726;52.198;8.792;2024-02-16T09:22:49;4.47;;;1.90;;
19187;SDS011;9726;52.198;8.792;2024-02-16T09:25:16;9.87;;;1.90;;
19187;SDS011;9726;52.198;8.792;2024-02-16T09:27:43;11.00;;;2.20;;
19187;SDS011;9726;52.198;8.792;2024-02-16T09:30:12;6.33;;;2.00;;
19187;SDS011;9726;52.198;8.792;2024-02-16T09:32:40;9.77;;;1.80;;
19187;SDS011;9726;52.198;8.792;2024-02-16T09:35:10;10.77;;;1.97;;
19187;SDS011;9726;52.198;8.792;2024-02-16T09:37:39;5.67;;;1.87;;
19187;SDS011;9726;52.198;8.792;2024-02-16T09:40:06;11.87;;;2.13;;
19187;SDS011;9726;52.198;8.792;2024-02-16T09:42:35;7.57;;;2.03;;
19187;SDS011;9726;52.198;8.792;2024-02-16T09:45:05;15.17;;;2.43;;
19187;SDS011;9726;52.198;8.792;2024-02-16T09:47:33;7.23;;;2.10;;
19187;SDS011;9726;52.198;8.792;2024-02-16T09:50:01;5.17;;;1.87;;
19187;SDS011;9726;52.198;8.792;2024-02-16T09:52:29;5.60;;;2.40;;
19187;SDS011;9726;52.198;8.792;2024-02-16T09:54:56;5.93;;;2.07;;
19187;SDS011;9726;52.198;8.792;2024-02-16T09:57:23;5.00;;;1.80;;
19187;SDS011;9726;52.198;8.792;2024-02-16T09:59:50;4.10;;;2.33;;
19187;SDS011;9726;52.198;8.792;2024-02-16T10:02:18;6.60;;;2.10;;
19187;SDS011;9726;52.198;8.792;2024-02-16T10:04:46;9.20;;;2.00;;
19187;SDS011;9726;52.198;8.792;2024-02-16T10:07:13;6.33;;;2.03;;
19187;SDS011;9726;52.198;8.792;2024-02-16T10:09:41;8.67;;;1.93;;
19187;SDS011;9726;52.198;8.792;2024-02-16T10:12:09;6.57;;;2.07;;
19187;SDS011;9726;52.198;8.792;2024-02-16T10:14:36;7.03;;;2.40;;
19187;SDS011;9726;52.198;8.792;2024-02-16T10:17:07;11.33;;;2.33;;
19187;SDS011;9726;52.198;8.792;2024-02-16T10:19:36;11.93;;;2.93;;
19187;SDS011;9726;52.198;8.792;2024-02-16T10:22:09;8.93;;;2.23;;
19187;SDS011;9726;52.198;8.792;2024-02-16T10:24:37;5.97;;;1.87;;
19187;SDS011;9726;52.198;8.792;2024-02-16T10:27:06;13.67;;;2.37;;
19187;SDS011;9726;52.198;8.792;2024-02-16T10:29:42;3.03;;;1.73;;
19187;SDS011;9726;52.198;8.792;2024-02-16T10:32:11;8.47;;;2.30;;
19187;SDS011;9726;52.198;8.792;2024-02-16T10:34:40;9.30;;;2.27;;
19187;SDS011;9726;52.198;8.792;2024-02-16T10:37:09;4.67;;;2.10;;
19187;SDS011;9726;52.198;8.792;2024-02-16T10:39:36;7.57;;;2.30;;
19187;SDS011;9726;52.198;8.792;2024-02-16T10:42:05;10.73;;;2.80;;
19187;SDS011;9726;52.198;8.792;2024-02-16T10:44:35;4.30;;;2.43;;
19187;SDS011;9726;52.198;8.792;2024-02-16T10:47:02;8.33;;;2.07;;
19187;SDS011;9726;52.198;8.792;2024-02-16T10:49:31;6.30;;;2.27;;
19187;SDS011;9726;52.198;8.792;2024-02-16T10:51:58;9.83;;;2.60;;
19187;SDS011;9726;52.198;8.792;2024-02-16T10:54:28;7.90;;;2.53;;
19187;SDS011;9726;52.198;8.792;2024-02-16T10:56:58;6.43;;;2.50;;
19187;SDS011;9726;52.198;8.792;2024-02-16T10:59:26;7.00;;;2.40;;
19187;SDS011;9726;52.198;8.792;2024-02-16T11:01:59;11.37;;;2.50;;
19187;SDS011;9726;52.198;8.792;2024-02-16T11:04:36;10.77;;;2.97;;
19187;SDS011;9726;52.198;8.792;2024-02-16T11:07:17;12.97;;;2.70;;
19187;SDS011;9726;52.198;8.792;2024-02-16T11:09:46;8.83;;;2.20;;
19187;SDS011;9726;52.198;8.792;2024-02-16T11:12:14;13.00;;;2.57;;
19187;SDS011;9726;52.198;8.792;2024-02-16T11:14:43;9.33;;;3.30;;
19187;SDS011;9726;52.198;8.792;2024-02-16T11:17:12;10.87;;;2.60;;
19187;SDS011;9726;52.198;8.792;2024-02-16T11:19:47;13.73;;;2.73;;
19187;SDS011;9726;52.198;8.792;2024-02-16T11:22:16;6.10;;;2.67;;
19187;SDS011;9726;52.198;8.792;2024-02-16T11:24:49;6.93;;;2.40;;
19187;SDS011;9726;52.198;8.792;2024-02-16T11:27:23;6.87;;;2.97;;
19187;SDS011;9726;52.198;8.792;2024-02-16T11:29:50;11.87;;;2.83;;
19187;SDS011;9726;52.198;8.792;2024-02-16T11:32:21;9.37;;;2.57;;
19187;SDS011;9726;52.198;8.792;2024-02-16T11:34:48;6.47;;;2.57;;
19187;SDS011;9726;52.198;8.792;2024-02-16T11:37:18;11.90;;;3.23;;
19187;SDS011;9726;52.198;8.792;2024-02-16T11:39:46;9.60;;;2.93;;
19187;SDS011;9726;52.198;8.792;2024-02-16T11:42:18;8.03;;;3.10;;
19187;SDS011;9726;52.198;8.792;2024-02-16T11:44:53;10.97;;;2.90;;
19187;SDS011;9726;52.198;8.792;2024-02-16T11:47:23;7.87;;;3.60;;
19187;SDS011;9726;52.198;8.792;2024-02-16T11:50:02;11.07;;;3.10;;
19187;SDS011;9726;52.198;8.792;2024-02-16T11:52:39;8.80;;;2.90;;
19187;SDS011;9726;52.198;8.792;2024-02-16T11:55:07;9.77;;;2.77;;
19187;SDS011;9726;52.198;8.792;2024-02-16T11:57:35;10.43;;;3.30;;
19187;SDS011;9726;52.198;8.792;2024-02-16T12:00:03;7.53;;;3.00;;
19187;SDS011;9726;52.198;8.792;2024-02-16T12:02:34;17.33;;;3.97;;
19187;SDS011;9726;52.198;8.792;2024-02-16T12:05:03;9.60;;;3.33;;
19187;SDS011;9726;52.198;8.792;2024-02-16T12:07:31;13.20;;;3.40;;
19187;SDS011;9726;52.198;8.792;2024-02-16T12:10:01;7.33;;;3.10;;
19187;SDS011;9726;52.198;8.792;2024-02-16T12:12:31;13.57;;;2.63;;
19187;SDS011;9726;52.198;8.792;2024-02-16T12:14:59;13.00;;;3.73;;
19187;SDS011;9726;52.198;8.792;2024-02-16T12:17:27;12.37;;;3.30;;
19187;SDS011;9726;52.198;8.792;2024-02-16T12:19:54;11.93;;;4.13;;
19187;SDS011;9726;52.198;8.792;2024-02-16T12:22:21;12.73;;;3.67;;
19187;SDS011;9726;52.198;8.792;2024-02-16T12:24:49;10.00;;;3.07;;
19187;SDS011;9726;52.198;8.792;2024-02-16T12:27:17;10.37;;;3.10;;
19187;SDS011;9726;52.198;8.792;2024-02-16T12:29:44;12.43;;;3.70;;
19187;SDS011;9726;52.198;8.792;2024-02-16T12:32:12;8.50;;;3.00;;
19187;SDS011;9726;52.198;8.792;2024-02-16T12:34:45;10.40;;;2.87;;
19187;SDS011;9726;52.198;8.792;2024-02-16T12:37:12;10.93;;;3.60;;
19187;SDS011;9726;52.198;8.792;2024-02-16T12:39:42;10.83;;;3.50;;
19187;SDS011;9726;52.198;8.792;2024-02-16T12:42:11;9.47;;;3.70;;
19187;SDS011;9726;52.198;8.792;2024-02-16T12:44:39;11.50;;;4.80;;
19187;SDS011;9726;52.198;8.792;2024-02-16T12:47:07;7.87;;;3.10;;
19187;SDS011;9726;52.198;8.792;2024-02-16T12:49:35;13.53;;;3.87;;
19187;SDS011;9726;52.198;8.792;2024-02-16T12:52:02;13.83;;;3.87;;
19187;SDS011;9726;52.198;8.792;2024-02-16T12:54:30;16.63;;;3.27;;
19187;SDS011;9726;52.198;8.792;2024-02-16T12:56:58;12.03;;;3.33;;
19187;SDS011;9726;52.198;8.792;2024-02-16T12:59:25;9.60;;;3.80;;
19187;SDS011;9726;52.198;8.792;2024-02-16T13:01:53;11.10;;;3.73;;
19187;SDS011;9726;52.198;8.792;2024-02-16T13:04:20;9.40;;;3.80;;
19187;SDS011;9726;52.198;8.792;2024-02-16T13:06:49;11.07;;;4.93;;
19187;SDS011;9726;52.198;8.792;2024-02-16T13:09:17;14.77;;;4.70;;
19187;SDS011;9726;52.198;8.792;2024-02-16T13:11:45;11.90;;;4.23;;
19187;SDS011;9726;52.198;8.792;2024-02-16T13:14:16;15.30;;;4.40;;
19187;SDS011;9726;52.198;8.792;2024-02-16T13:16:43;13.37;;;4.67;;
19187;SDS011;9726;52.198;8.792;2024-02-16T13:19:10;13.13;;;5.67;;
19187;SDS011;9726;52.198;8.792;2024-02-16T13:21:38;15.60;;;5.03;;
19187;SDS011;9726;52.198;8.792;2024-02-16T13:24:07;8.10;;;4.80;;
19187;SDS011;9726;52.198;8.792;2024-02-16T13:26:34;9.33;;;5.40;;
19187;SDS011;9726;52.198;8.792;2024-02-16T13:29:01;21.80;;;5.97;;
19187;SDS011;9726;52.198;8.792;2024-02-16T13:31:29;12.50;;;5.90;;
19187;SDS011;9726;52.198;8.792;2024-02-16T13:33:58;20.47;;;6.93;;
19187;SDS011;9726;52.198;8.792;2024-02-16T13:36:25;14.63;;;6.03;;
19187;SDS011;9726;52.198;8.792;2024-02-16T13:38:52;21.80;;;7.07;;
19187;SDS011;9726;52.198;8.792;2024-02-16T13:41:19;15.43;;;7.30;;
19187;SDS011;9726;52.198;8.792;2024-02-16T13:43:46;19.30;;;7.77;;
19187;SDS011;9726;52.198;8.792;2024-02-16T13:46:14;14.20;;;7.53;;
19187;SDS011;9726;52.198;8.792;2024-02-16T13:48:41;17.47;;;8.43;;
19187;SDS011;9726;52.198;8.792;2024-02-16T13:51:09;22.17;;;8.23;;
19187;SDS011;9726;52.198;8.792;2024-02-16T13:53:36;23.67;;;9.60;;
19187;SDS011;9726;52.198;8.792;2024-02-16T13:56:04;18.63;;;9.27;;
19187;SDS011;9726;52.198;8.792;2024-02-16T13:58:32;23.20;;;9.27;;
19187;SDS011;9726;52.198;8.792;2024-02-16T14:01:01;18.77;;;9.77;;
19187;SDS011;9726;52.198;8.792;2024-02-16T14:03:30;15.53;;;8.97;;
19187;SDS011;9726;52.198;8.792;2024-02-16T14:05:59;18.43;;;9.43;;
19187;SDS011;9726;52.198;8.792;2024-02-16T14:08:27;20.93;;;8.13;;
19187;SDS011;9726;52.198;8.792;2024-02-16T14:10:54;22.20;;;8.70;;
19187;SDS011;9726;52.198;8.792;2024-02-16T14:13:21;21.27;;;10.00;;
19187;SDS011;9726;52.198;8.792;2024-02-16T14:15:51;20.27;;;9.07;;
19187;SDS011;9726;52.198;8.792;2024-02-16T14:18:19;15.80;;;8.87;;
19187;SDS011;9726;52.198;8.792;2024-02-16T14:21:00;18.93;;;10.53;;
19187;SDS011;9726;52.198;8.792;2024-02-16T14:23:31;17.73;;;9.07;;
19187;SDS011;9726;52.198;8.792;2024-02-16T14:25:59;14.73;;;9.23;;
19187;SDS011;9726;52.198;8.792;2024-02-16T14:28:27;32.80;;;10.53;;
19187;SDS011;9726;52.198;8.792;2024-02-16T14:30:54;18.23;;;10.07;;
19187;SDS011;9726;52.198;8.792;2024-02-16T14:33:21;27.70;;;10.60;;
19187;SDS011;9726;52.198;8.792;2024-02-16T14:36:00;18.03;;;9.80;;
19187;SDS011;9726;52.198;8.792;2024-02-16T14:38:28;18.23;;;11.37;;
19187;SDS011;9726;52.198;8.792;2024-02-16T14:40:55;31.37;;;10.87;;
19187;SDS011;9726;52.198;8.792;2024-02-16T14:43:23;20.80;;;12.33;;
19187;SDS011;9726;52.198;8.792;2024-02-16T14:45:50;18.73;;;11.37;;
19187;SDS011;9726;52.198;8.792;2024-02-16T14:48:21;27.73;;;13.00;;
19187;SDS011;9726;52.198;8.792;2024-02-16T14:50:48;24.40;;;12.60;;
19187;SDS011;9726;52.198;8.792;2024-02-16T14:53:16;27.80;;;13.50;;
19187;SDS011;9726;52.198;8.792;2024-02-16T14:55:43;27.03;;;13.30;;
19187;SDS011;9726;52.198;8.792;2024-02-16T14:58:10;31.07;;;14.53;;
19187;SDS011;9726;52.198;8.792;2024-02-16T15:00:37;22.90;;;15.47;;